createdAt,value
2022-08-11T00:01:14.645Z,80.20
2022-08-11T00:03:47.599Z,80.00
2022-08-11T00:06:24.390Z,80.10
2022-08-11T00:08:53.619Z,80.70
2022-08-11T00:11:23.124Z,81.10
2022-08-11T00:13:55.767Z,81.10
2022-08-11T00:16:25.990Z,81.50
2022-08-11T00:18:57.900Z,81.60
2022-08-11T00:22:02.805Z,81.30
2022-08-11T00:24:18.008Z,81.30
2022-08-11T00:26:49.102Z,82.00
2022-08-11T00:29:18.157Z,82.30
2022-08-11T00:31:51.874Z,82.40
2022-08-11T00:34:24.819Z,82.50
2022-08-11T00:36:55.251Z,82.50
2022-08-11T00:39:29.037Z,82.90
2022-08-11T00:42:11.141Z,83.40
2022-08-11T00:44:53.858Z,84.00
2022-08-11T00:47:35.315Z,84.00
2022-08-11T00:50:15.713Z,84.20
2022-08-11T00:53:06.736Z,84.90
2022-08-11T00:56:01.053Z,85.60
2022-08-11T00:59:34.664Z,86.10
2022-08-11T01:02:16.273Z,86.40
2022-08-11T01:05:18.031Z,87.20
2022-08-11T01:08:38.550Z,87.90
2022-08-11T01:11:55.824Z,88.20
2022-08-11T01:14:54.008Z,88.50
2022-08-11T01:17:59.631Z,88.90
2022-08-11T01:21:07.847Z,88.90
2022-08-11T01:24:13.298Z,89.30
2022-08-11T01:27:19.619Z,89.40
2022-08-11T01:30:19.056Z,89.80
2022-08-11T01:33:23.255Z,90.00
2022-08-11T01:39:13.625Z,91.00
2022-08-11T01:42:29.925Z,90.30
2022-08-11T01:45:11.542Z,90.40
2022-08-11T01:53:11.613Z,90.00
2022-08-11T01:55:49.601Z,90.50
2022-08-11T01:58:39.550Z,90.80
2022-08-11T02:01:24.409Z,91.00
2022-08-11T02:04:00.811Z,91.20
2022-08-11T02:06:58.381Z,91.40
2022-08-11T02:09:49.793Z,91.50
2022-08-11T02:12:37.882Z,91.60
2022-08-11T02:15:16.558Z,91.60
2022-08-11T02:17:58.788Z,91.70
2022-08-11T02:20:51.063Z,91.70
2022-08-11T02:24:05.152Z,91.90
2022-08-11T02:26:41.426Z,92.10
2022-08-11T02:29:18.963Z,92.30
2022-08-11T02:32:28.717Z,92.40
2022-08-11T02:35:05.427Z,92.50
2022-08-11T02:37:46.301Z,92.60
2022-08-11T02:40:25.679Z,92.80
2022-08-11T02:43:20.133Z,93.00
2022-08-11T02:45:55.698Z,93.00
2022-08-11T02:49:06.765Z,93.10
2022-08-11T02:51:43.537Z,93.20
2022-08-11T02:54:22.530Z,93.50
2022-08-11T02:56:58.821Z,93.60
2022-08-11T02:59:53.203Z,93.80
2022-08-11T03:02:33.269Z,94.30
2022-08-11T03:05:08.269Z,94.20
2022-08-11T03:07:52.961Z,94.20
2022-08-11T03:10:24.914Z,94.10
2022-08-11T03:13:16.137Z,94.20
2022-08-11T03:16:10.640Z,94.30
2022-08-11T03:18:46.999Z,94.20
2022-08-11T03:21:23.521Z,94.40
2022-08-11T03:26:29.737Z,94.10
2022-08-11T03:29:03.055Z,94.30
2022-08-11T03:31:38.382Z,94.50
2022-08-11T03:34:12.740Z,94.40
2022-08-11T03:37:36.382Z,94.60
2022-08-11T03:40:41.375Z,94.90
2022-08-11T03:43:24.235Z,94.70
2022-08-11T03:46:05.069Z,95.10
2022-08-11T03:48:47.451Z,95.20
2022-08-11T03:51:23.862Z,95.20
2022-08-11T03:54:13.282Z,95.40
2022-08-11T03:57:26.552Z,95.30
2022-08-11T04:00:39.707Z,95.30
2022-08-11T04:03:43.557Z,95.50
2022-08-11T04:06:37.577Z,95.50
2022-08-11T04:10:17.214Z,95.40
2022-08-11T04:13:10.585Z,95.70
2022-08-11T04:19:11.260Z,95.20
2022-08-11T04:22:15.494Z,95.10
2022-08-11T04:25:17.851Z,94.90
2022-08-11T04:28:29.048Z,94.80
2022-08-11T04:31:10.209Z,94.50
2022-08-11T04:34:00.931Z,94.20
2022-08-11T04:37:04.366Z,93.90
2022-08-11T04:40:02.991Z,93.80
2022-08-11T04:43:28.560Z,93.30
2022-08-11T04:46:27.479Z,92.60
2022-08-11T04:49:53.564Z,92.30
2022-08-11T04:53:01.168Z,91.90
2022-08-11T04:56:12.429Z,91.40
2022-08-11T04:59:27.199Z,99.90
2022-08-11T05:02:30.516Z,91.00
2022-08-11T05:05:33.156Z,90.40
2022-08-11T05:08:58.820Z,90.40
2022-08-11T05:11:46.142Z,89.00
2022-08-11T05:14:53.639Z,88.10
2022-08-11T05:17:53.272Z,86.70
2022-08-11T05:20:42.747Z,85.60
2022-08-11T05:23:30.275Z,96.80
2022-08-11T05:26:46.842Z,83.70
2022-08-11T05:29:47.137Z,82.10
2022-08-11T05:32:36.687Z,79.80
2022-08-11T05:35:08.686Z,79.30
2022-08-11T05:37:58.174Z,78.90
2022-08-11T05:40:51.252Z,78.60
2022-08-11T05:44:21.500Z,77.70
2022-08-11T05:46:57.520Z,76.20
2022-08-11T06:19:32.968Z,66.60
2022-08-11T06:25:48.331Z,64.30
2022-08-11T06:28:23.168Z,63.20
2022-08-11T06:30:58.699Z,63.10
2022-08-11T06:33:35.679Z,62.30
2022-08-11T06:36:24.319Z,61.20
2022-08-11T06:39:09.672Z,61.40
2022-08-11T06:41:59.217Z,60.10
2022-08-11T06:44:59.850Z,58.70
2022-08-11T06:47:42.536Z,58.10
2022-08-11T06:53:21.505Z,55.40
2022-08-11T06:56:08.771Z,55.60
2022-08-11T06:59:05.725Z,56.00
2022-08-11T07:01:49.205Z,55.70
2022-08-11T07:04:29.493Z,55.90
2022-08-11T07:07:33.431Z,55.20
2022-08-11T07:10:45.124Z,54.80
2022-08-11T07:13:44.965Z,54.30
2022-08-11T07:16:25.827Z,53.30
2022-08-11T07:19:24.349Z,53.40
2022-08-11T07:22:12.183Z,53.30
2022-08-11T07:25:03.422Z,53.00
2022-08-11T07:27:55.255Z,52.80
2022-08-11T07:30:26.990Z,51.20
2022-08-11T07:33:00.668Z,51.90
2022-08-11T07:38:08.737Z,50.50
2022-08-11T07:40:39.035Z,48.90
2022-08-11T07:43:08.141Z,48.90
2022-08-11T07:45:54.703Z,48.70
2022-08-11T07:48:42.585Z,47.40
2022-08-11T07:51:28.843Z,47.70
2022-08-11T07:54:15.284Z,48.40
2022-08-11T07:56:55.553Z,48.30
2022-08-11T07:59:58.555Z,47.80
2022-08-11T08:02:47.408Z,47.30
2022-08-11T08:08:25.334Z,46.10
2022-08-11T08:11:13.169Z,46.20
2022-08-11T08:13:59.779Z,45.70
2022-08-11T08:16:45.888Z,45.90
2022-08-11T08:19:16.085Z,45.70
2022-08-11T08:21:46.797Z,45.40
2022-08-11T08:24:15.784Z,44.80
2022-08-11T08:27:06.511Z,44.60
2022-08-11T08:29:55.576Z,44.80
2022-08-11T08:32:28.006Z,45.00
2022-08-11T08:34:59.387Z,44.60
2022-08-11T08:37:45.975Z,44.40
2022-08-11T08:40:16.513Z,43.90
2022-08-11T08:42:54.021Z,43.80
2022-08-11T08:45:24.451Z,43.30
2022-08-11T08:48:00.541Z,42.90
2022-08-11T08:50:48.225Z,42.40
2022-08-11T08:53:21.908Z,41.80
2022-08-11T08:55:52.070Z,41.60
2022-08-11T08:58:25.646Z,41.10
2022-08-11T09:00:58.060Z,40.70
2022-08-11T09:04:04.575Z,40.40
2022-08-11T09:06:18.248Z,40.10
2022-08-11T09:08:51.938Z,39.80
2022-08-11T09:11:42.549Z,40.00
2022-08-11T09:14:14.493Z,39.10
2022-08-11T09:16:44.467Z,39.20
2022-08-11T09:19:17.634Z,38.40
2022-08-11T09:22:11.565Z,39.00
2022-08-11T09:24:59.855Z,39.00
2022-08-11T09:27:28.892Z,39.20
2022-08-11T09:29:57.876Z,39.10
2022-08-11T09:32:28.997Z,39.40
2022-08-11T09:34:58.663Z,39.40
2022-08-11T09:37:54.240Z,39.50
2022-08-11T09:40:33.963Z,38.90
2022-08-11T09:43:30.691Z,38.70
2022-08-11T09:46:03.323Z,39.20
2022-08-11T09:48:37.474Z,38.20
2022-08-11T09:51:10.536Z,38.10
2022-08-11T09:56:33.739Z,37.20
2022-08-11T09:59:04.490Z,37.50
2022-08-11T10:01:40.729Z,37.60
2022-08-11T10:04:20.322Z,37.40
2022-08-11T10:09:43.571Z,36.30
2022-08-11T10:12:17.755Z,36.70
2022-08-11T10:15:05.306Z,37.20
2022-08-11T10:17:37.704Z,37.00
2022-08-11T10:20:10.101Z,37.40
2022-08-11T10:23:00.825Z,36.90
2022-08-11T10:25:57.858Z,37.00
2022-08-11T10:28:36.605Z,36.40
2022-08-11T10:31:45.137Z,36.50
2022-08-11T10:34:29.099Z,35.60
2022-08-11T10:37:03.172Z,35.30
2022-08-11T10:39:32.592Z,35.50
2022-08-11T10:42:35.025Z,35.60
2022-08-11T10:45:31.316Z,35.30
2022-08-11T10:48:00.090Z,35.20
2022-08-11T10:50:46.910Z,35.00
2022-08-11T10:53:34.127Z,35.10
2022-08-11T10:56:21.468Z,35.00
2022-08-11T10:58:57.529Z,35.30
2022-08-11T11:01:32.478Z,35.40
2022-08-11T11:04:10.507Z,35.80
2022-08-11T11:06:48.951Z,35.80
2022-08-11T11:09:21.214Z,35.90
2022-08-11T11:12:11.414Z,35.90
2022-08-11T11:15:00.650Z,36.10
2022-08-11T11:17:56.588Z,36.60
2022-08-11T11:20:34.561Z,36.60
2022-08-11T11:23:13.639Z,37.00
2022-08-11T11:26:35.203Z,37.60
2022-08-11T11:29:41.042Z,38.00
2022-08-11T11:32:32.031Z,38.60
2022-08-11T11:35:19.799Z,38.20
2022-08-11T11:38:03.410Z,37.90
2022-08-11T11:40:34.760Z,37.50
2022-08-11T11:43:06.228Z,37.40
2022-08-11T11:45:35.256Z,37.10
2022-08-11T11:48:07.372Z,37.20
2022-08-11T11:50:39.699Z,38.60
2022-08-11T11:53:13.187Z,39.40
2022-08-11T11:55:43.444Z,40.00
2022-08-11T11:58:29.246Z,39.70
2022-08-11T12:01:17.720Z,39.30
2022-08-11T12:03:48.452Z,39.10
2022-08-11T12:06:25.371Z,39.50
2022-08-11T12:08:57.530Z,39.90
2022-08-11T12:11:47.117Z,40.20
2022-08-11T12:14:20.503Z,40.40
2022-08-11T12:16:50.331Z,41.00
2022-08-11T12:19:26.814Z,41.30
2022-08-11T12:22:15.450Z,41.60
2022-08-11T12:25:04.054Z,42.00
2022-08-11T12:27:32.997Z,42.20
2022-08-11T12:30:08.651Z,42.40
2022-08-11T12:32:39.222Z,42.50
2022-08-11T12:35:13.032Z,42.40
2022-08-11T12:37:47.381Z,42.50
2022-08-11T12:41:12.030Z,41.80
2022-08-11T12:43:57.077Z,41.00
2022-08-11T12:46:33.179Z,41.50
2022-08-11T12:49:27.950Z,41.90
2022-08-11T12:52:01.649Z,42.30
2022-08-11T12:54:52.076Z,42.90
2022-08-11T12:57:49.212Z,43.10
2022-08-11T13:00:36.980Z,42.20
2022-08-11T13:03:27.072Z,41.50
2022-08-11T13:06:02.831Z,40.60
2022-08-11T13:08:37.096Z,40.10
2022-08-11T13:11:54.513Z,39.60
2022-08-11T13:14:15.496Z,39.30
2022-08-11T13:17:04.476Z,39.20
2022-08-11T13:19:36.741Z,39.50
2022-08-11T13:22:06.585Z,39.30
2022-08-11T13:24:37.047Z,39.00
2022-08-11T13:27:07.697Z,39.20
2022-08-11T13:29:37.658Z,39.20
2022-08-11T13:32:08.481Z,39.60
2022-08-11T13:34:41.940Z,40.00
2022-08-11T13:37:14.472Z,40.30
2022-08-11T13:39:47.339Z,40.60
2022-08-11T13:42:23.195Z,40.70
2022-08-11T13:44:52.230Z,40.60
2022-08-11T13:47:23.683Z,40.40
2022-08-11T13:49:55.942Z,40.60
2022-08-11T13:52:27.242Z,40.50
2022-08-11T13:55:03.082Z,40.60
2022-08-11T13:58:08.892Z,40.70
2022-08-11T14:00:27.818Z,40.80
2022-08-11T14:02:58.869Z,40.90
2022-08-11T14:05:33.237Z,41.00
2022-08-11T14:08:06.122Z,40.90
2022-08-11T14:10:37.386Z,40.80
2022-08-11T14:13:41.229Z,40.70
2022-08-11T14:16:18.820Z,41.00
2022-08-11T14:18:50.758Z,41.30
2022-08-11T14:21:40.642Z,41.50
2022-08-11T14:24:14.648Z,41.70
2022-08-11T14:26:46.715Z,42.00
2022-08-11T14:31:53.076Z,42.50
2022-08-11T14:34:27.007Z,42.10
2022-08-11T14:36:59.291Z,42.10
2022-08-11T14:39:30.304Z,42.30
2022-08-11T14:42:19.318Z,41.70
2022-08-11T14:45:09.165Z,41.40
2022-08-11T14:47:39.520Z,41.50
2022-08-11T14:50:14.466Z,42.00
2022-08-11T14:52:50.450Z,41.90
2022-08-11T14:55:37.299Z,42.10
2022-08-11T14:58:07.536Z,42.00
2022-08-11T15:00:39.596Z,41.50
2022-08-11T15:03:11.545Z,41.50
2022-08-11T15:05:56.636Z,41.20
2022-08-11T15:08:54.177Z,41.20
2022-08-11T15:11:41.935Z,43.00
2022-08-11T15:14:12.340Z,43.10
2022-08-11T15:17:02.622Z,42.90
2022-08-11T15:19:40.534Z,43.50
2022-08-11T15:22:29.667Z,43.30
2022-08-11T15:25:00.195Z,43.50
2022-08-11T15:27:48.724Z,43.70
2022-08-11T15:30:35.422Z,43.60
2022-08-11T15:33:26.728Z,43.70
2022-08-11T15:36:14.383Z,43.60
2022-08-11T15:38:48.041Z,43.50
2022-08-11T15:41:36.609Z,43.60
2022-08-11T15:44:51.362Z,43.80
2022-08-11T15:47:18.499Z,44.30
2022-08-11T15:50:10.711Z,45.00
2022-08-11T15:52:50.911Z,45.60
2022-08-11T15:55:21.077Z,46.10
2022-08-11T15:58:13.807Z,46.40
2022-08-11T16:01:08.638Z,46.80
2022-08-11T16:04:07.987Z,47.30
2022-08-11T16:06:49.304Z,47.80
2022-08-11T16:11:51.233Z,50.00
2022-08-11T16:14:38.729Z,48.00
2022-08-11T16:17:13.116Z,49.30
2022-08-11T16:19:46.182Z,52.10
2022-08-11T16:22:32.200Z,55.10
2022-08-11T16:27:06.985Z,55.70
2022-08-11T16:27:59.957Z,56.40
2022-08-11T16:30:32.479Z,57.30
2022-08-11T16:33:48.393Z,58.30
2022-08-11T16:36:15.109Z,57.40
2022-08-11T16:38:46.040Z,58.60
2022-08-11T16:41:38.455Z,58.00
2022-08-11T16:44:36.907Z,58.00
2022-08-11T16:47:09.074Z,58.30
2022-08-11T16:49:52.111Z,58.20
2022-08-11T16:52:22.606Z,57.50
2022-08-11T16:54:55.524Z,55.00
2022-08-11T16:57:44.812Z,54.80
2022-08-11T17:00:16.882Z,53.90
2022-08-11T17:03:08.025Z,52.80
2022-08-11T17:05:55.435Z,52.50
2022-08-11T17:08:55.930Z,53.60
2022-08-11T17:11:47.751Z,52.60
2022-08-11T17:14:35.292Z,53.50
2022-08-11T17:17:09.128Z,58.40
2022-08-11T17:30:17.762Z,51.10
2022-08-11T17:33:08.012Z,51.40
2022-08-11T17:35:40.514Z,60.30
2022-08-11T17:38:13.735Z,59.10
2022-08-11T17:41:05.211Z,55.30
2022-08-11T17:43:52.818Z,53.20
2022-08-11T17:46:40.283Z,50.40
2022-08-11T17:49:11.940Z,49.00
2022-08-11T17:52:03.822Z,46.50
2022-08-11T17:54:51.312Z,46.70
2022-08-11T17:57:38.899Z,46.80
2022-08-11T18:00:11.131Z,47.10
2022-08-11T18:03:02.182Z,45.90
2022-08-11T18:05:35.256Z,45.90
2022-08-11T18:08:27.840Z,44.90
2022-08-11T18:11:17.241Z,44.90
2022-08-11T18:14:11.382Z,45.20
2022-08-11T18:17:02.590Z,44.90
2022-08-11T18:19:52.614Z,45.00
2022-08-11T18:22:41.138Z,44.50
2022-08-11T18:25:29.738Z,44.50
2022-08-11T18:28:18.466Z,44.80
2022-08-11T18:31:13.129Z,45.10
2022-08-11T18:34:07.610Z,45.00
2022-08-11T18:37:00.474Z,45.10
2022-08-11T18:39:56.345Z,45.30
2022-08-11T18:42:43.689Z,45.20
2022-08-11T18:45:35.794Z,45.20
2022-08-11T18:48:34.179Z,45.40
2022-08-11T18:51:29.703Z,45.50
2022-08-11T18:54:27.752Z,46.20
2022-08-11T18:57:15.122Z,45.90
2022-08-11T19:00:03.495Z,46.40
2022-08-11T19:02:55.948Z,45.90
2022-08-11T19:06:31.980Z,46.20
2022-08-11T19:08:55.237Z,46.30
2022-08-11T19:11:43.656Z,46.40
2022-08-11T19:14:31.273Z,46.40
2022-08-11T19:17:43.801Z,46.60
2022-08-11T19:20:31.974Z,46.80
2022-08-11T19:23:19.053Z,46.50
2022-08-11T19:26:09.099Z,45.70
2022-08-11T19:28:59.108Z,46.50
2022-08-11T19:31:46.559Z,46.90
2022-08-11T19:34:36.060Z,46.70
2022-08-11T19:37:25.256Z,46.40
2022-08-11T19:40:13.308Z,47.00
2022-08-11T19:43:14.716Z,47.30
2022-08-11T19:46:15.780Z,47.20
2022-08-11T19:49:03.657Z,47.20
2022-08-11T19:51:53.941Z,46.90
2022-08-11T19:54:45.321Z,47.00
2022-08-11T19:57:37.117Z,47.00
2022-08-11T20:00:34.131Z,46.90
2022-08-11T20:03:22.410Z,46.60
2022-08-11T20:06:08.802Z,46.40
2022-08-11T20:09:02.964Z,46.40
2022-08-11T20:11:51.985Z,46.30
2022-08-11T20:14:43.658Z,45.60
2022-08-11T20:17:33.825Z,45.70
2022-08-11T20:20:22.762Z,44.50
2022-08-11T20:23:12.471Z,45.10
2022-08-11T20:26:08.432Z,44.90
2022-08-11T20:29:04.503Z,45.20
2022-08-11T20:31:51.888Z,45.00
2022-08-11T20:34:39.971Z,45.10
2022-08-11T20:37:29.846Z,45.20
2022-08-11T20:40:16.717Z,44.90
2022-08-11T20:44:06.908Z,44.60
2022-08-11T20:46:18.245Z,45.00
2022-08-11T20:49:08.556Z,44.50
2022-08-11T20:51:56.680Z,44.70
2022-08-11T20:54:48.974Z,44.70
2022-08-11T20:57:59.458Z,44.30
2022-08-11T21:00:44.365Z,44.10
2022-08-11T21:03:36.261Z,44.50
2022-08-11T21:06:33.395Z,44.60
2022-08-11T21:09:44.215Z,44.90
2022-08-11T21:12:31.729Z,45.00
2022-08-11T21:15:39.199Z,45.00
2022-08-11T21:18:29.889Z,44.60
2022-08-11T21:21:19.774Z,44.80
2022-08-11T21:24:09.908Z,44.70
2022-08-11T21:27:03.759Z,44.50
2022-08-11T21:29:52.312Z,44.80
2022-08-11T21:32:40.602Z,44.60
2022-08-11T21:35:30.217Z,44.30
2022-08-11T21:38:16.924Z,45.10
2022-08-11T21:41:05.229Z,44.70
2022-08-11T21:43:53.073Z,44.60
2022-08-11T21:46:41.156Z,44.90
2022-08-11T21:49:30.052Z,44.80
2022-08-11T21:52:15.834Z,44.90
2022-08-11T21:55:02.362Z,44.90
2022-08-11T21:57:50.683Z,45.60
2022-08-11T22:00:43.767Z,45.60
2022-08-11T22:03:31.379Z,45.70
2022-08-11T22:06:27.645Z,45.70
2022-08-11T22:09:14.133Z,46.10
2022-08-11T22:12:34.301Z,46.50
2022-08-11T22:15:06.008Z,46.70
2022-08-11T22:17:57.888Z,46.00
2022-08-11T22:20:45.682Z,46.70
2022-08-11T22:23:36.224Z,47.40
2022-08-11T22:26:24.394Z,48.40
2022-08-11T22:29:13.753Z,47.90
2022-08-11T22:32:02.215Z,48.00
2022-08-11T22:34:53.446Z,48.00
2022-08-11T22:37:40.064Z,48.00
2022-08-11T22:40:28.034Z,48.10
2022-08-11T22:43:14.705Z,48.20
2022-08-11T22:46:00.562Z,48.50
2022-08-11T22:48:48.913Z,48.40
2022-08-11T22:51:38.145Z,48.80
2022-08-11T22:54:25.039Z,48.20
2022-08-11T22:57:11.216Z,48.50
2022-08-11T22:59:58.723Z,48.90
2022-08-11T23:02:46.856Z,49.00
2022-08-11T23:05:34.219Z,49.10
2022-08-11T23:08:22.344Z,49.20
2022-08-11T23:11:09.293Z,49.00
2022-08-11T23:13:55.747Z,49.10
2022-08-11T23:16:43.954Z,49.50
2022-08-11T23:20:06.727Z,49.60
2022-08-11T23:22:49.883Z,49.70
2022-08-11T23:25:38.000Z,50.10
2022-08-11T23:28:25.024Z,50.30
2022-08-11T23:31:15.346Z,50.70
2022-08-11T23:34:05.544Z,50.70
2022-08-11T23:36:51.146Z,51.00
2022-08-11T23:39:39.464Z,50.80
2022-08-11T23:42:28.864Z,50.60
2022-08-11T23:45:18.494Z,50.50
2022-08-11T23:48:10.762Z,50.20
2022-08-11T23:50:56.676Z,50.00
2022-08-11T23:53:43.047Z,50.20
2022-08-11T23:56:31.617Z,50.40
2022-08-11T23:59:20.337Z,50.70
